createdAt,value
2022-07-29T00:00:01.833Z,37.44
2022-07-29T00:02:33.032Z,37.86
2022-07-29T00:04:59.830Z,37.78
2022-07-29T00:07:26.564Z,38.33
2022-07-29T00:09:53.311Z,38.41
2022-07-29T00:12:25.075Z,38.58
2022-07-29T00:14:53.704Z,38.74
2022-07-29T00:17:20.430Z,38.57
2022-07-29T00:19:47.138Z,38.53
2022-07-29T00:22:13.782Z,38.74
2022-07-29T00:24:40.574Z,38.74
2022-07-29T00:27:07.391Z,38.67
2022-07-29T00:29:35.033Z,38.59
2022-07-29T00:32:03.285Z,38.86
2022-07-29T00:34:49.070Z,38.90
2022-07-29T00:37:15.770Z,39.14
2022-07-29T00:39:42.545Z,39.26
2022-07-29T00:42:10.611Z,39.43
2022-07-29T00:44:42.388Z,39.83
2022-07-29T00:47:11.560Z,40.26
2022-07-29T00:49:40.765Z,40.51
2022-07-29T00:52:10.069Z,40.21
2022-07-29T00:54:44.494Z,40.46
2022-07-29T00:57:13.074Z,40.67
2022-07-29T00:59:40.110Z,40.30
2022-07-29T01:02:06.925Z,40.15
2022-07-29T01:04:34.234Z,40.26
2022-07-29T01:07:02.907Z,40.60
2022-07-29T01:09:43.076Z,40.80
2022-07-29T01:12:16.188Z,40.66
2022-07-29T01:14:43.704Z,40.67
2022-07-29T01:17:21.531Z,40.53
2022-07-29T01:20:06.204Z,40.50
2022-07-29T01:22:36.066Z,39.79
2022-07-29T01:25:22.751Z,39.52
2022-07-29T01:28:11.775Z,38.95
2022-07-29T01:30:40.899Z,39.13
2022-07-29T01:33:34.527Z,39.34
2022-07-29T01:36:06.728Z,38.93
2022-07-29T01:38:36.433Z,39.40
2022-07-29T01:41:09.440Z,38.96
2022-07-29T01:43:52.970Z,39.39
2022-07-29T01:46:26.404Z,39.03
2022-07-29T01:49:02.877Z,38.89
2022-07-29T01:51:44.588Z,38.72
2022-07-29T01:54:25.933Z,38.78
2022-07-29T01:56:56.488Z,39.12
2022-07-29T01:59:25.759Z,39.12
2022-07-29T02:01:55.780Z,39.05
2022-07-29T02:04:26.626Z,38.83
2022-07-29T02:07:01.594Z,38.71
2022-07-29T02:09:31.306Z,39.17
2022-07-29T02:12:00.307Z,38.84
2022-07-29T02:14:31.360Z,39.14
2022-07-29T02:17:01.246Z,38.88
2022-07-29T02:19:28.790Z,38.94
2022-07-29T02:21:58.476Z,38.85
2022-07-29T02:24:26.868Z,38.71
2022-07-29T02:26:55.989Z,38.93
2022-07-29T02:29:25.798Z,39.38
2022-07-29T02:31:54.440Z,39.34
2022-07-29T02:34:22.755Z,39.30
2022-07-29T02:36:50.911Z,39.15
2022-07-29T02:39:18.618Z,38.81
2022-07-29T02:41:52.303Z,39.02
2022-07-29T02:44:24.546Z,38.91
2022-07-29T02:47:05.053Z,38.56
2022-07-29T02:49:49.691Z,38.96
2022-07-29T02:52:25.318Z,39.30
2022-07-29T02:55:03.145Z,39.13
2022-07-29T02:57:54.549Z,39.18
2022-07-29T03:00:27.582Z,39.06
2022-07-29T03:02:57.330Z,39.27
2022-07-29T03:05:24.481Z,39.41
2022-07-29T03:07:57.561Z,39.67
2022-07-29T03:10:28.557Z,39.31
2022-07-29T03:12:57.396Z,39.70
2022-07-29T03:15:26.959Z,39.49
2022-07-29T03:17:54.666Z,39.46
2022-07-29T03:20:21.860Z,39.86
2022-07-29T03:22:48.767Z,39.72
2022-07-29T03:25:17.695Z,40.26
2022-07-29T03:27:45.357Z,40.17
2022-07-29T03:30:18.430Z,40.44
2022-07-29T03:32:53.411Z,40.82
2022-07-29T03:35:21.428Z,41.14
2022-07-29T03:37:48.293Z,41.69
2022-07-29T03:40:20.978Z,42.15
2022-07-29T03:42:49.405Z,42.15
2022-07-29T03:45:19.631Z,42.08
2022-07-29T03:48:03.037Z,41.29
2022-07-29T03:50:31.521Z,41.53
2022-07-29T03:52:59.031Z,41.88
2022-07-29T03:55:27.454Z,42.18
2022-07-29T03:57:56.348Z,42.08
2022-07-29T04:00:25.133Z,42.11
2022-07-29T04:02:51.986Z,42.45
2022-07-29T04:05:19.449Z,42.62
2022-07-29T04:07:47.522Z,42.67
2022-07-29T04:10:16.625Z,42.71
2022-07-29T04:12:43.777Z,42.64
2022-07-29T04:15:11.388Z,42.73
2022-07-29T04:17:38.732Z,43.10
2022-07-29T04:20:06.347Z,42.98
2022-07-29T04:22:33.213Z,43.02
2022-07-29T04:25:03.964Z,42.70
2022-07-29T04:27:31.301Z,42.95
2022-07-29T04:29:58.102Z,43.29
2022-07-29T04:32:25.829Z,43.42
2022-07-29T04:34:52.567Z,43.35
2022-07-29T04:37:19.516Z,43.83
2022-07-29T04:39:46.184Z,44.35
2022-07-29T04:42:13.319Z,44.81
2022-07-29T04:44:43.145Z,45.21
2022-07-29T04:47:10.296Z,45.61
2022-07-29T04:49:40.277Z,45.53
2022-07-29T04:52:07.773Z,45.75
2022-07-29T04:54:34.543Z,45.15
2022-07-29T04:57:01.317Z,45.19
2022-07-29T04:59:28.106Z,44.11
2022-07-29T05:01:54.926Z,44.37
2022-07-29T05:04:21.778Z,44.05
2022-07-29T05:06:48.802Z,43.96
2022-07-29T05:09:15.728Z,43.59
2022-07-29T05:11:42.500Z,43.33
2022-07-29T05:14:09.239Z,43.37
2022-07-29T05:16:36.162Z,43.79
2022-07-29T05:19:02.987Z,43.60
2022-07-29T05:21:29.653Z,43.62
2022-07-29T05:23:56.381Z,43.72
2022-07-29T05:26:23.215Z,43.59
2022-07-29T05:28:50.106Z,43.55
2022-07-29T05:31:16.854Z,43.67
2022-07-29T05:33:43.609Z,43.58
2022-07-29T05:36:10.461Z,43.26
2022-07-29T05:38:37.428Z,43.99
2022-07-29T05:41:05.997Z,44.03
2022-07-29T05:43:33.202Z,43.78
2022-07-29T05:46:00.209Z,43.30
2022-07-29T05:48:27.047Z,43.06
2022-07-29T05:50:53.938Z,43.22
2022-07-29T05:53:21.161Z,43.47
2022-07-29T05:55:51.726Z,43.90
2022-07-29T05:58:18.969Z,44.78
2022-07-29T06:00:45.985Z,43.85
2022-07-29T06:03:12.761Z,43.92
2022-07-29T06:05:39.594Z,43.63
2022-07-29T06:08:08.024Z,43.57
2022-07-29T06:10:38.171Z,43.69
2022-07-29T06:13:05.009Z,44.10
2022-07-29T06:15:31.787Z,43.73
2022-07-29T06:18:00.543Z,43.34
2022-07-29T06:20:31.245Z,42.52
2022-07-29T06:22:59.418Z,42.52
2022-07-29T06:25:27.388Z,43.00
2022-07-29T06:27:54.089Z,42.59
2022-07-29T06:30:20.866Z,43.78
2022-07-29T06:32:48.074Z,44.34
2022-07-29T06:38:02.315Z,44.78
2022-07-29T06:40:47.793Z,44.77
2022-07-29T06:43:14.639Z,44.52
2022-07-29T06:45:42.478Z,44.70
2022-07-29T06:48:10.490Z,44.84
2022-07-29T06:50:37.355Z,44.86
2022-07-29T06:53:04.919Z,44.37
2022-07-29T06:55:31.790Z,44.18
2022-07-29T06:57:58.468Z,44.59
2022-07-29T07:00:25.604Z,45.43
2022-07-29T07:02:57.962Z,46.02
2022-07-29T07:05:24.712Z,44.90
2022-07-29T07:07:51.438Z,44.87
2022-07-29T07:10:19.525Z,45.09
2022-07-29T07:12:46.266Z,45.92
2022-07-29T07:15:13.447Z,45.68
2022-07-29T07:17:40.475Z,46.10
2022-07-29T07:20:07.900Z,45.89
2022-07-29T07:22:38.938Z,45.84
2022-07-29T07:25:07.480Z,44.82
2022-07-29T07:27:34.204Z,45.74
2022-07-29T07:30:01.778Z,45.92
2022-07-29T07:32:30.055Z,44.82
2022-07-29T07:34:56.926Z,44.61
2022-07-29T07:37:25.641Z,44.90
2022-07-29T07:39:53.270Z,45.52
2022-07-29T07:42:20.624Z,45.90
2022-07-29T07:45:11.944Z,45.75
2022-07-29T07:47:37.834Z,46.84
2022-07-29T07:50:11.714Z,47.66
2022-07-29T07:52:53.436Z,48.29
2022-07-29T07:55:20.960Z,48.15
2022-07-29T07:57:48.345Z,47.99
2022-07-29T08:00:16.595Z,47.95
2022-07-29T08:02:44.084Z,48.46
2022-07-29T08:05:13.095Z,48.31
2022-07-29T08:07:40.070Z,48.17
2022-07-29T08:10:07.211Z,48.08
2022-07-29T08:12:34.346Z,48.56
2022-07-29T08:15:01.284Z,48.29
2022-07-29T08:17:28.128Z,49.05
2022-07-29T08:19:55.400Z,48.47
2022-07-29T08:22:22.122Z,47.90
2022-07-29T08:24:53.416Z,48.11
2022-07-29T08:27:42.600Z,47.69
2022-07-29T08:30:08.862Z,45.97
2022-07-29T08:35:25.429Z,47.48
2022-07-29T08:37:52.997Z,47.56
2022-07-29T08:40:31.876Z,47.01
2022-07-29T08:43:04.942Z,47.24
2022-07-29T08:45:47.460Z,46.16
2022-07-29T08:48:23.536Z,46.09
2022-07-29T08:50:56.678Z,45.77
2022-07-29T08:53:27.346Z,45.70
2022-07-29T08:55:54.517Z,45.46
2022-07-29T08:58:23.214Z,45.52
2022-07-29T09:00:55.469Z,45.58
2022-07-29T09:03:30.536Z,46.93
2022-07-29T09:05:57.726Z,47.69
2022-07-29T09:08:24.738Z,47.77
2022-07-29T09:10:52.178Z,46.80
2022-07-29T09:13:19.094Z,46.26
2022-07-29T09:15:46.160Z,46.27
2022-07-29T09:18:26.757Z,46.11
2022-07-29T09:21:16.434Z,45.82
2022-07-29T09:24:10.870Z,45.38
2022-07-29T09:26:45.669Z,44.94
2022-07-29T09:29:18.090Z,44.34
2022-07-29T09:31:52.372Z,43.62
2022-07-29T09:34:27.224Z,42.71
2022-07-29T09:36:55.997Z,43.99
2022-07-29T09:39:38.112Z,43.88
2022-07-29T09:42:06.992Z,42.93
2022-07-29T09:44:43.846Z,43.44
2022-07-29T09:47:10.776Z,43.26
2022-07-29T09:49:55.028Z,43.41
2022-07-29T09:52:22.393Z,43.50
2022-07-29T09:54:49.126Z,43.62
2022-07-29T09:57:30.857Z,43.97
2022-07-29T10:00:00.350Z,44.73
2022-07-29T10:02:32.072Z,44.88
2022-07-29T10:05:01.607Z,44.85
2022-07-29T10:07:53.923Z,44.26
2022-07-29T10:10:23.895Z,44.20
2022-07-29T10:13:01.819Z,43.89
2022-07-29T10:15:38.105Z,43.81
2022-07-29T10:18:05.200Z,43.23
2022-07-29T10:20:31.938Z,42.49
2022-07-29T10:22:58.872Z,41.95
2022-07-29T10:25:26.819Z,41.63
2022-07-29T10:27:54.828Z,42.04
2022-07-29T10:30:23.330Z,41.48
2022-07-29T10:32:58.775Z,41.77
2022-07-29T10:35:46.985Z,42.53
2022-07-29T10:38:28.715Z,42.25
2022-07-29T10:44:26.371Z,42.46
2022-07-29T10:46:54.381Z,41.87
2022-07-29T10:49:27.701Z,41.45
2022-07-29T10:52:11.412Z,41.70
2022-07-29T10:54:38.222Z,41.69
2022-07-29T10:57:18.750Z,41.12
2022-07-29T10:59:48.372Z,41.63
2022-07-29T11:02:40.928Z,41.27
2022-07-29T11:05:10.079Z,41.13
2022-07-29T11:07:45.942Z,40.58
2022-07-29T11:10:13.933Z,40.97
2022-07-29T11:12:48.304Z,41.04
2022-07-29T11:15:21.589Z,40.36
2022-07-29T11:18:01.493Z,40.13
2022-07-29T11:20:54.776Z,39.73
2022-07-29T11:23:33.408Z,38.79
2022-07-29T11:26:22.872Z,38.97
2022-07-29T11:28:56.039Z,38.88
2022-07-29T11:31:43.945Z,38.87
2022-07-29T11:34:33.066Z,39.38
2022-07-29T11:37:07.628Z,39.38
2022-07-29T11:39:36.445Z,39.33
2022-07-29T11:42:32.391Z,39.53
2022-07-29T11:45:43.218Z,38.84
2022-07-29T11:48:32.082Z,38.61
2022-07-29T11:50:53.609Z,39.19
2022-07-29T11:53:20.940Z,39.19
2022-07-29T11:55:56.127Z,39.03
2022-07-29T11:58:26.003Z,38.44
2022-07-29T12:00:55.803Z,37.91
2022-07-29T12:03:34.858Z,38.26
2022-07-29T12:06:18.103Z,38.40
2022-07-29T12:08:45.755Z,37.32
2022-07-29T12:11:21.406Z,37.24
2022-07-29T12:13:50.893Z,37.55
2022-07-29T12:16:29.446Z,37.02
2022-07-29T12:19:02.034Z,37.62
2022-07-29T12:21:30.380Z,36.38
2022-07-29T12:24:02.099Z,36.70
2022-07-29T12:26:34.087Z,36.30
2022-07-29T12:29:03.358Z,35.29
2022-07-29T12:31:43.567Z,34.58
2022-07-29T12:34:13.919Z,35.02
2022-07-29T12:36:42.867Z,34.72
2022-07-29T12:39:11.527Z,34.84
2022-07-29T12:41:38.349Z,35.03
2022-07-29T12:44:05.546Z,35.09
2022-07-29T12:46:32.464Z,34.94
2022-07-29T12:48:59.651Z,35.07
2022-07-29T12:51:40.454Z,34.70
2022-07-29T12:54:14.276Z,34.40
2022-07-29T12:56:45.153Z,34.99
2022-07-29T12:59:20.809Z,33.93
2022-07-29T13:01:50.381Z,34.41
2022-07-29T13:04:34.459Z,34.69
2022-07-29T13:07:08.101Z,33.59
2022-07-29T13:09:39.135Z,34.78
2022-07-29T13:12:11.175Z,33.47
2022-07-29T13:14:40.911Z,33.31
2022-07-29T13:17:19.206Z,33.39
2022-07-29T13:19:52.374Z,33.07
2022-07-29T13:22:21.897Z,33.33
2022-07-29T13:24:57.995Z,34.08
2022-07-29T13:27:27.357Z,33.25
2022-07-29T13:29:57.521Z,33.40
2022-07-29T13:32:28.486Z,33.64
2022-07-29T13:35:01.761Z,33.94
2022-07-29T13:37:35.345Z,34.03
2022-07-29T13:40:04.067Z,33.98
2022-07-29T13:42:32.425Z,34.25
2022-07-29T13:44:59.868Z,34.00
2022-07-29T13:47:32.142Z,33.85
2022-07-29T13:50:05.355Z,33.68
2022-07-29T13:52:33.698Z,33.84
2022-07-29T13:55:01.203Z,32.57
2022-07-29T13:57:28.699Z,32.14
2022-07-29T13:59:56.154Z,32.61
2022-07-29T14:02:25.289Z,32.40
2022-07-29T14:04:53.986Z,32.01
2022-07-29T14:07:21.371Z,32.39
2022-07-29T14:09:48.110Z,32.85
2022-07-29T14:12:14.910Z,31.93
2022-07-29T14:14:42.438Z,31.75
2022-07-29T14:17:10.365Z,31.76
2022-07-29T14:19:38.626Z,30.74
2022-07-29T14:22:06.952Z,31.25
2022-07-29T14:24:36.405Z,31.13
2022-07-29T14:27:04.718Z,30.30
2022-07-29T14:29:37.015Z,30.21
2022-07-29T14:32:08.959Z,29.33
2022-07-29T14:34:37.543Z,29.31
2022-07-29T14:37:09.395Z,29.87
2022-07-29T14:39:42.799Z,29.38
2022-07-29T14:42:11.576Z,28.02
2022-07-29T14:44:42.014Z,27.74
2022-07-29T14:47:08.674Z,27.69
2022-07-29T14:49:36.185Z,28.84
2022-07-29T14:52:03.815Z,28.34
2022-07-29T14:54:30.433Z,27.68
2022-07-29T14:56:58.418Z,27.80
2022-07-29T14:59:26.453Z,28.01
2022-07-29T15:01:53.437Z,28.04
2022-07-29T15:04:20.468Z,28.57
2022-07-29T15:06:47.258Z,27.93
2022-07-29T15:09:14.215Z,28.48
2022-07-29T15:11:40.927Z,28.45
2022-07-29T15:14:07.803Z,28.58
2022-07-29T15:16:37.841Z,28.64
2022-07-29T15:19:05.554Z,27.84
2022-07-29T15:21:32.957Z,26.33
2022-07-29T15:23:59.855Z,24.79
2022-07-29T15:26:27.177Z,25.00
2022-07-29T15:28:54.017Z,25.18
2022-07-29T15:31:20.849Z,23.98
2022-07-29T15:33:47.712Z,25.27
2022-07-29T15:36:35.708Z,26.29
2022-07-29T15:39:02.071Z,27.33
2022-07-29T15:41:28.899Z,27.49
2022-07-29T15:43:55.565Z,24.99
2022-07-29T15:46:40.794Z,25.76
2022-07-29T15:49:08.803Z,27.24
2022-07-29T15:51:35.850Z,27.63
2022-07-29T15:54:04.473Z,27.18
2022-07-29T15:56:31.568Z,27.87
2022-07-29T15:58:58.824Z,26.92
2022-07-29T16:01:25.909Z,26.79
2022-07-29T16:03:53.243Z,26.74
2022-07-29T16:06:20.494Z,26.78
2022-07-29T16:08:47.436Z,26.46
2022-07-29T16:11:14.148Z,26.36
2022-07-29T16:13:41.058Z,26.32
2022-07-29T16:16:08.889Z,26.64
2022-07-29T16:18:35.980Z,26.29
2022-07-29T16:21:03.090Z,26.29
2022-07-29T16:23:30.039Z,26.39
2022-07-29T16:26:00.057Z,26.02
2022-07-29T16:28:31.122Z,25.83
2022-07-29T16:30:58.304Z,26.08
2022-07-29T16:33:25.575Z,26.04
2022-07-29T16:35:52.837Z,26.84
2022-07-29T16:38:20.423Z,27.32
2022-07-29T16:40:47.946Z,25.79
2022-07-29T16:43:15.246Z,26.67
2022-07-29T16:45:46.077Z,26.19
2022-07-29T16:48:15.078Z,26.17
2022-07-29T16:50:45.074Z,26.31
2022-07-29T16:53:11.721Z,27.10
2022-07-29T16:55:38.790Z,26.63
2022-07-29T16:58:10.030Z,26.26
2022-07-29T17:00:37.221Z,26.19
2022-07-29T17:03:05.441Z,25.88
2022-07-29T17:05:52.655Z,25.62
2022-07-29T17:08:20.061Z,25.87
2022-07-29T17:10:47.279Z,25.53
2022-07-29T17:13:14.464Z,25.73
2022-07-29T17:15:42.999Z,25.66
2022-07-29T17:18:12.357Z,25.80
2022-07-29T17:20:42.054Z,25.83
2022-07-29T17:23:09.415Z,26.03
2022-07-29T17:25:36.324Z,25.77
2022-07-29T17:28:03.196Z,26.60
2022-07-29T17:30:29.964Z,30.32
2022-07-29T17:32:56.843Z,31.37
2022-07-29T17:35:41.967Z,32.48
2022-07-29T17:38:08.671Z,34.23
2022-07-29T17:40:35.418Z,34.72
2022-07-29T17:43:02.723Z,34.71
2022-07-29T17:45:50.339Z,34.82
2022-07-29T17:48:16.294Z,35.87
2022-07-29T17:50:43.034Z,35.98
2022-07-29T17:53:16.136Z,36.16
2022-07-29T17:55:48.501Z,36.75
2022-07-29T17:58:15.974Z,36.55
2022-07-29T18:00:43.177Z,37.56
2022-07-29T18:03:10.236Z,37.23
2022-07-29T18:05:37.147Z,37.84
2022-07-29T18:08:04.088Z,38.12
2022-07-29T18:10:31.249Z,38.38
2022-07-29T18:12:57.979Z,38.47
2022-07-29T18:15:24.693Z,39.16
2022-07-29T18:17:56.457Z,39.68
2022-07-29T18:20:24.229Z,40.27
2022-07-29T18:22:51.204Z,40.07
2022-07-29T18:25:18.240Z,39.98
2022-07-29T18:27:45.172Z,40.09
2022-07-29T18:30:12.057Z,40.91
2022-07-29T18:32:38.759Z,41.13
2022-07-29T18:35:06.316Z,41.72
2022-07-29T18:38:01.384Z,41.80
2022-07-29T18:40:25.385Z,42.52
2022-07-29T18:42:53.136Z,42.53
2022-07-29T18:45:20.053Z,43.01
2022-07-29T18:47:49.064Z,43.91
2022-07-29T18:50:16.929Z,44.68
2022-07-29T18:52:46.102Z,45.50
2022-07-29T18:55:13.759Z,45.30
2022-07-29T18:57:54.117Z,46.12
2022-07-29T19:00:24.247Z,46.14
2022-07-29T19:02:52.597Z,46.37
2022-07-29T19:05:19.921Z,46.51
2022-07-29T19:07:46.674Z,46.70
2022-07-29T19:10:13.611Z,46.87
2022-07-29T19:12:40.571Z,46.96
2022-07-29T19:15:08.010Z,46.99
2022-07-29T19:17:34.754Z,46.80
2022-07-29T19:20:02.058Z,47.06
2022-07-29T19:22:30.773Z,47.61
2022-07-29T19:24:57.827Z,47.43
2022-07-29T19:27:25.904Z,47.23
2022-07-29T19:29:52.568Z,47.15
2022-07-29T19:32:24.694Z,47.14
2022-07-29T19:35:11.517Z,47.58
2022-07-29T19:37:38.213Z,47.28
2022-07-29T19:40:06.273Z,47.73
2022-07-29T19:42:33.032Z,47.97
2022-07-29T19:44:59.957Z,47.85
2022-07-29T19:47:26.829Z,47.96
2022-07-29T19:49:53.624Z,47.61
2022-07-29T19:52:20.646Z,48.06
2022-07-29T19:54:47.370Z,47.20
2022-07-29T19:57:14.352Z,47.33
2022-07-29T19:59:41.320Z,47.50
2022-07-29T20:02:11.039Z,47.57
2022-07-29T20:04:38.614Z,46.71
2022-07-29T20:07:06.385Z,47.07
2022-07-29T20:09:33.442Z,46.95
2022-07-29T20:12:00.405Z,46.66
2022-07-29T20:14:27.101Z,46.89
2022-07-29T20:16:54.362Z,46.46
2022-07-29T20:19:21.657Z,46.98
2022-07-29T20:21:48.450Z,46.40
2022-07-29T20:24:15.105Z,47.11
2022-07-29T20:26:41.873Z,46.72
2022-07-29T20:29:09.167Z,46.84
2022-07-29T20:31:36.143Z,46.93
2022-07-29T20:34:03.804Z,46.65
2022-07-29T20:36:30.962Z,46.24
2022-07-29T20:38:59.930Z,45.79
2022-07-29T20:41:27.071Z,45.55
2022-07-29T20:43:53.785Z,45.30
2022-07-29T20:46:20.614Z,45.22
2022-07-29T20:48:47.842Z,45.67
2022-07-29T20:51:14.857Z,45.81
2022-07-29T20:53:41.905Z,45.85
2022-07-29T20:56:08.675Z,45.33
2022-07-29T20:58:36.398Z,45.49
2022-07-29T21:01:07.997Z,45.44
2022-07-29T21:03:35.528Z,45.22
2022-07-29T21:06:02.544Z,46.00
2022-07-29T21:08:29.350Z,45.45
2022-07-29T21:10:56.568Z,45.05
2022-07-29T21:13:25.446Z,45.03
2022-07-29T21:15:55.809Z,45.34
2022-07-29T21:18:33.048Z,45.54
2022-07-29T21:21:01.341Z,45.81
2022-07-29T21:23:28.461Z,45.68
2022-07-29T21:25:55.995Z,45.75
2022-07-29T21:28:35.775Z,45.29
2022-07-29T21:31:12.767Z,44.98
2022-07-29T21:33:41.463Z,45.53
2022-07-29T21:36:42.760Z,45.48
2022-07-29T21:38:56.973Z,45.19
2022-07-29T21:41:23.784Z,45.24
2022-07-29T21:43:50.992Z,45.26
2022-07-29T21:46:18.414Z,45.03
2022-07-29T21:48:45.498Z,45.34
2022-07-29T21:51:12.293Z,45.36
2022-07-29T21:53:40.157Z,45.98
2022-07-29T21:56:09.373Z,46.43
2022-07-29T21:58:41.673Z,46.74
2022-07-29T22:01:08.585Z,46.69
2022-07-29T22:03:35.337Z,46.64
2022-07-29T22:06:02.113Z,46.31
2022-07-29T22:08:28.776Z,46.81
2022-07-29T22:10:55.446Z,46.98
2022-07-29T22:13:22.174Z,46.79
2022-07-29T22:15:48.935Z,46.67
2022-07-29T22:18:20.774Z,46.82
2022-07-29T22:20:51.362Z,46.79
2022-07-29T22:23:18.205Z,47.38
2022-07-29T22:25:44.967Z,47.01
2022-07-29T22:28:11.745Z,47.48
2022-07-29T22:30:38.401Z,47.43
2022-07-29T22:33:05.199Z,47.09
2022-07-29T22:35:31.871Z,47.12
2022-07-29T22:37:58.529Z,47.53
2022-07-29T22:40:30.556Z,47.72
2022-07-29T22:42:57.727Z,47.50
2022-07-29T22:45:24.407Z,48.35
2022-07-29T22:47:55.943Z,49.03
2022-07-29T22:50:24.660Z,48.68
2022-07-29T22:52:51.364Z,49.20
2022-07-29T22:55:18.185Z,49.10
2022-07-29T22:57:44.943Z,49.31
2022-07-29T23:00:13.485Z,49.41
2022-07-29T23:02:41.304Z,49.24
2022-07-29T23:05:11.546Z,49.42
2022-07-29T23:07:38.543Z,49.65
2022-07-29T23:10:05.790Z,49.58
2022-07-29T23:12:32.459Z,49.76
2022-07-29T23:15:00.544Z,49.53
2022-07-29T23:17:27.398Z,49.06
2022-07-29T23:19:54.193Z,49.49
2022-07-29T23:22:20.899Z,51.46
2022-07-29T23:24:47.702Z,51.42
2022-07-29T23:27:14.424Z,52.45
2022-07-29T23:29:41.294Z,52.39
2022-07-29T23:32:08.121Z,52.51
2022-07-29T23:34:35.246Z,52.13
2022-07-29T23:37:02.286Z,51.84
2022-07-29T23:39:29.355Z,51.90
2022-07-29T23:41:56.112Z,52.97
2022-07-29T23:44:22.821Z,53.72
2022-07-29T23:46:49.670Z,53.26
2022-07-29T23:49:16.652Z,53.56
2022-07-29T23:51:43.487Z,53.63
2022-07-29T23:54:10.220Z,53.32
2022-07-29T23:56:36.977Z,52.97
2022-07-29T23:59:05.751Z,52.36
